Time;durP1;ratioP1;P1;durP2;ratioP2;P2;SDS_P1;SDS_P2;PMS_P1;PMS_P2;Temp;Humidity;BMP_temperature;BMP_pressure;BME280_temperature;BME280_humidity;BME280_pressure;Samples;Min_cycle;Max_cycle;Signal;HPM_P1;HPM_P2
2024/04/14 00:01:06;;;;;;;0.50;0.50;;;13.90;1.00;;;;;;5399394;26;20372;-77
2024/04/14 00:03:32;;;;;;;0.85;0.75;;;13.80;10.20;;;;;;5399459;26;20027;-76
2024/04/14 00:05:59;;;;;;;3.72;0.93;;;13.80;31.80;;;;;;5397611;26;20114;-77
2024/04/14 00:08:25;;;;;;;0.88;0.88;;;13.70;37.70;;;;;;5407157;26;20032;-79
2024/04/14 00:10:51;;;;;;;0.90;0.75;;;13.70;36.70;;;;;;5405327;26;20032;-77
2024/04/14 00:13:17;;;;;;;0.20;0.20;;;13.60;44.40;;;;;;5407985;26;20027;-76
2024/04/14 00:15:43;;;;;;;3.53;0.50;;;13.60;78.10;;;;;;5403405;26;20377;-76
2024/04/14 00:18:10;;;;;;;5.13;1.60;;;13.50;71.20;;;;;;5396981;26;20384;-75
2024/04/14 00:20:36;;;;;;;0.90;0.68;;;13.50;94.50;;;;;;5391289;26;20032;-76
2024/04/14 00:23:02;;;;;;;0.30;0.30;;;13.50;94.40;;;;;;5402090;26;20028;-77
2024/04/14 00:25:28;;;;;;;0.70;0.70;;;13.50;83.20;;;;;;5393352;26;20040;-77
2024/04/14 00:27:55;;;;;;;0.40;0.40;;;13.50;93.40;;;;;;5396175;26;20145;-75
2024/04/14 00:30:21;;;;;;;0.50;0.50;;;13.50;90.70;;;;;;5363209;26;20032;-76
2024/04/14 00:32:47;;;;;;;0.25;0.25;;;13.50;90.30;;;;;;5394484;26;20036;-76
2024/04/14 00:35:13;;;;;;;0.20;0.20;;;13.50;89.90;;;;;;5397085;26;20041;-75
2024/04/14 00:37:40;;;;;;;0.30;0.30;;;13.50;83.10;;;;;;5402912;26;20808;-76
2024/04/14 00:40:06;;;;;;;2.15;0.90;;;13.60;40.60;;;;;;5399471;26;20035;-78
2024/04/14 00:42:33;;;;;;;0.60;0.50;;;13.60;46.30;;;;;;5396671;26;20028;-76
2024/04/14 00:45:00;;;;;;;0.60;0.55;;;13.60;54.30;;;;;;5391415;26;20044;-78
2024/04/14 00:47:26;;;;;;;0.63;0.63;;;13.50;47.90;;;;;;5398084;26;20381;-76
2024/04/14 00:49:52;;;;;;;0.30;0.30;;;13.50;62.60;;;;;;5407891;26;20028;-76
2024/04/14 00:52:18;;;;;;;0.25;0.25;;;13.50;61.70;;;;;;5404732;26;20036;-77
2024/04/14 00:54:45;;;;;;;1.17;0.75;;;13.60;33.70;;;;;;5403132;26;20374;-76
2024/04/14 00:57:11;;;;;;;0.30;0.30;;;13.70;10.50;;;;;;5388750;26;20037;-76
2024/04/14 00:59:37;;;;;;;0.47;0.47;;;13.80;1.00;;;;;;5399020;26;20389;-75
2024/04/14 01:02:03;;;;;;;0.15;0.15;;;13.70;1.00;;;;;;5401193;26;20031;-76
2024/04/14 01:04:29;;;;;;;0.30;0.30;;;13.70;1.00;;;;;;5400092;26;20063;-76
2024/04/14 01:06:58;;;;;;;1.10;0.90;;;13.70;1.00;;;;;;5399009;26;20031;-76
2024/04/14 01:09:24;;;;;;;0.75;0.70;;;13.70;1.00;;;;;;5367828;26;20028;-76
2024/04/14 01:11:51;;;;;;;1.33;1.23;;;14.00;1.00;;;;;;5407337;26;20035;-76
2024/04/14 01:14:17;;;;;;;1.65;0.63;;;14.10;1.00;;;;;;5396572;26;20035;-76
2024/04/14 01:16:43;;;;;;;0.50;0.50;;;14.00;1.00;;;;;;5400731;26;20055;-75
2024/04/14 01:19:10;;;;;;;0.63;0.63;;;14.00;1.00;;;;;;5389967;26;20040;-77
2024/04/14 01:21:36;;;;;;;0.30;0.30;;;14.00;1.00;;;;;;5390486;26;20031;-77
2024/04/14 01:24:02;;;;;;;2.22;1.48;;;14.00;1.00;;;;;;5369955;26;20035;-77
2024/04/14 01:26:28;;;;;;;0.65;0.65;;;13.90;1.00;;;;;;5402971;26;20036;-77
2024/04/14 01:28:55;;;;;;;1.48;0.35;;;13.70;1.00;;;;;;5399048;26;20027;-78
2024/04/14 01:31:21;;;;;;;1.23;0.40;;;13.50;1.00;;;;;;5397944;26;20041;-75
2024/04/14 01:33:47;;;;;;;0.60;0.55;;;13.40;24.40;;;;;;5392847;26;20031;-81
2024/04/14 01:36:13;;;;;;;0.68;0.57;;;13.30;28.30;;;;;;5401242;26;20036;-76
2024/04/14 01:38:39;;;;;;;0.73;0.73;;;13.20;57.70;;;;;;5400147;26;20040;-77
2024/04/14 01:41:06;;;;;;;0.38;0.38;;;13.20;56.90;;;;;;5402799;26;20384;-76
2024/04/14 01:43:32;;;;;;;3.92;1.48;;;13.30;55.80;;;;;;5410191;26;20032;-80
2024/04/14 01:45:58;;;;;;;0.30;0.30;;;13.20;45.40;;;;;;5395341;26;20031;-76
2024/04/14 01:48:25;;;;;;;0.20;0.20;;;13.30;20.90;;;;;;5377473;26;20465;-76
2024/04/14 01:50:51;;;;;;;1.02;0.40;;;13.40;8.20;;;;;;5402259;26;20375;-76
2024/04/14 01:53:17;;;;;;;1.10;0.77;;;13.40;1.00;;;;;;5402211;26;20043;-76
2024/04/14 01:55:45;;;;;;;1.20;0.80;;;13.50;1.00;;;;;;5403403;26;20040;-76
2024/04/14 01:58:11;;;;;;;0.55;0.55;;;13.40;1.00;;;;;;5390028;26;20057;-76
2024/04/14 02:00:37;;;;;;;0.55;0.55;;;13.40;1.00;;;;;;5394205;26;20038;-76
2024/04/14 02:03:03;;;;;;;0.32;0.32;;;13.40;1.00;;;;;;5403417;26;20462;-76
2024/04/14 02:05:29;;;;;;;0.98;0.93;;;13.40;1.00;;;;;;5400805;26;20039;-76
2024/04/14 02:07:56;;;;;;;0.68;0.68;;;13.30;1.00;;;;;;5399501;26;20035;-76
2024/04/14 02:10:22;;;;;;;0.20;0.20;;;13.30;1.00;;;;;;5401354;26;20032;-77
2024/04/14 02:12:48;;;;;;;0.95;0.93;;;13.20;9.30;;;;;;5394818;26;20031;-76
2024/04/14 02:15:14;;;;;;;0.10;0.10;;;13.10;27.50;;;;;;5401665;26;20039;-76
2024/04/14 02:17:40;;;;;;;0.70;0.60;;;13.00;54.40;;;;;;5366475;26;20476;-77
2024/04/14 02:20:10;;;;;;;0.40;0.40;;;13.00;71.30;;;;;;5395995;26;20032;-77
2024/04/14 02:22:36;;;;;;;3.95;1.00;;;12.90;79.20;;;;;;5413058;26;20033;-76
2024/04/14 02:25:03;;;;;;;1.58;1.48;;;12.90;91.90;;;;;;5373566;26;20027;-78
2024/04/14 02:27:29;;;;;;;0.90;0.88;;;12.80;97.20;;;;;;5377863;26;20040;-76
2024/04/14 02:29:55;;;;;;;1.27;0.50;;;12.90;99.90;;;;;;5400732;26;20036;-76
2024/04/14 02:32:21;;;;;;;0.32;0.32;;;12.90;99.90;;;;;;5395570;26;20041;-77
2024/04/14 02:34:47;;;;;;;0.43;0.43;;;12.80;99.90;;;;;;5394763;26;20148;-77
2024/04/14 02:37:13;;;;;;;0.20;0.20;;;12.80;99.90;;;;;;5387574;26;20036;-76
2024/04/14 02:39:40;;;;;;;0.47;0.47;;;12.60;99.90;;;;;;5399946;26;20043;-76
2024/04/14 02:42:06;;;;;;;0.43;0.20;;;12.60;99.90;;;;;;5398006;26;20032;-77
2024/04/14 02:44:32;;;;;;;0.50;0.50;;;12.60;99.90;;;;;;5396854;26;20023;-76
2024/04/14 02:46:58;;;;;;;0.35;0.20;;;12.70;99.90;;;;;;5395298;26;20472;-75
2024/04/14 02:49:26;;;;;;;0.75;0.60;;;12.60;99.90;;;;;;5386862;26;20052;-76
2024/04/14 02:51:52;;;;;;;2.30;0.90;;;12.70;99.90;;;;;;5399668;26;20391;-77
2024/04/14 02:54:18;;;;;;;1.45;0.73;;;12.70;99.90;;;;;;5377669;26;20512;-77
2024/04/14 02:56:44;;;;;;;0.45;0.40;;;12.60;99.90;;;;;;5402558;26;20044;-76
2024/04/14 02:59:11;;;;;;;0.65;0.45;;;12.60;99.90;;;;;;5399510;26;20492;-76
2024/04/14 03:01:37;;;;;;;0.88;0.25;;;12.60;99.90;;;;;;5393194;26;20040;-76
2024/04/14 03:04:03;;;;;;;0.50;0.50;;;12.60;99.90;;;;;;5395346;26;20035;-77
2024/04/14 03:06:29;;;;;;;1.25;0.85;;;12.50;99.90;;;;;;5395528;26;20039;-76
2024/04/14 03:08:55;;;;;;;0.40;0.40;;;12.50;99.90;;;;;;5397398;26;20044;-76
2024/04/14 03:11:21;;;;;;;0.95;0.95;;;12.50;99.90;;;;;;5402130;26;20040;-77
2024/04/14 03:13:48;;;;;;;0.20;0.20;;;12.50;99.90;;;;;;5389091;26;20055;-76
2024/04/14 03:16:14;;;;;;;0.20;0.20;;;12.40;99.90;;;;;;5397294;26;20028;-76
2024/04/14 03:18:40;;;;;;;0.38;0.38;;;12.30;99.90;;;;;;5400630;26;20055;-76
2024/04/14 03:21:06;;;;;;;0.20;0.20;;;12.30;99.90;;;;;;5401383;26;20044;-78
2024/04/14 03:23:32;;;;;;;0.40;0.40;;;12.30;99.90;;;;;;5374917;26;20028;-77
2024/04/14 03:25:58;;;;;;;1.67;1.30;;;12.20;99.90;;;;;;5390913;26;20032;-76
2024/04/14 03:28:26;;;;;;;1.00;0.57;;;12.20;99.90;;;;;;5399711;26;20051;-77
2024/04/14 03:30:58;;;;;;;2.65;0.57;;;12.20;99.90;;;;;;5400584;26;20040;-77
2024/04/14 03:33:24;;;;;;;0.43;0.43;;;12.20;99.90;;;;;;5393592;26;20041;-78
2024/04/14 03:36:01;;;;;;;0.30;0.30;;;12.20;99.90;;;;;;5402953;26;20034;-77
2024/04/14 03:38:27;;;;;;;0.80;0.80;;;12.20;99.90;;;;;;5388821;26;20043;-77
2024/04/14 03:40:54;;;;;;;0.70;0.52;;;12.30;99.90;;;;;;5394612;26;20027;-78
2024/04/14 03:43:20;;;;;;;0.10;0.10;;;12.40;99.90;;;;;;5393002;26;20027;-78
2024/04/14 03:45:46;;;;;;;0.63;0.57;;;12.40;99.90;;;;;;5398443;26;20045;-77
2024/04/14 03:48:12;;;;;;;0.22;0.22;;;12.40;99.90;;;;;;5395522;26;20039;-77
2024/04/14 03:50:39;;;;;;;0.32;0.25;;;12.30;99.90;;;;;;5406558;26;20071;-77
2024/04/14 03:53:05;;;;;;;0.75;0.75;;;12.40;99.90;;;;;;5367141;26;20045;-77
2024/04/14 03:55:32;;;;;;;2.50;1.25;;;12.40;99.90;;;;;;5389903;26;20028;-76
2024/04/14 03:57:59;;;;;;;0.43;0.43;;;12.30;99.90;;;;;;5403437;26;20039;-76
2024/04/14 04:00:25;;;;;;;0.20;0.20;;;12.20;99.90;;;;;;5406831;26;20456;-76
2024/04/14 04:02:51;;;;;;;0.47;0.47;;;12.10;99.90;;;;;;5407342;26;20027;-76
2024/04/14 04:05:17;;;;;;;0.20;0.20;;;12.10;99.90;;;;;;5370347;26;20040;-76
2024/04/14 04:07:47;;;;;;;0.32;0.32;;;12.00;99.90;;;;;;5404568;26;20032;-76
2024/04/14 04:10:14;;;;;;;0.45;0.45;;;11.90;99.90;;;;;;5400179;26;20044;-76
2024/04/14 04:12:41;;;;;;;0.93;0.88;;;11.80;99.90;;;;;;5379109;26;20031;-78
2024/04/14 04:15:10;;;;;;;0.67;0.60;;;11.80;99.90;;;;;;5361358;26;20386;-82
2024/04/14 04:17:36;;;;;;;0.73;0.70;;;11.80;99.90;;;;;;5394853;26;20633;-77
2024/04/14 04:20:03;;;;;;;0.63;0.63;;;11.80;99.90;;;;;;5396644;26;20047;-76
2024/04/14 04:22:29;;;;;;;0.30;0.30;;;11.70;99.90;;;;;;5405303;26;20035;-76
2024/04/14 04:24:55;;;;;;;0.47;0.40;;;11.60;99.90;;;;;;5371131;26;20400;-77
2024/04/14 04:27:21;;;;;;;0.30;0.30;;;11.60;99.90;;;;;;5364922;26;20536;-77
2024/04/14 04:29:47;;;;;;;0.20;0.20;;;11.50;99.90;;;;;;5400256;26;20035;-76
2024/04/14 04:32:16;;;;;;;0.82;0.82;;;11.50;99.90;;;;;;5391586;26;20036;-75
2024/04/14 04:34:43;;;;;;;0.43;0.38;;;11.50;99.90;;;;;;5407050;26;20047;-76
2024/04/14 04:37:10;;;;;;;0.30;0.30;;;11.50;99.90;;;;;;5393905;26;20505;-79
2024/04/14 04:39:36;;;;;;;4.53;1.25;;;11.50;99.90;;;;;;5377595;26;20047;-77
2024/04/14 04:42:02;;;;;;;0.70;0.40;;;11.50;99.90;;;;;;5405516;26;20035;-77
2024/04/14 04:44:28;;;;;;;1.15;0.65;;;11.50;99.90;;;;;;5408297;26;20035;-76
2024/04/14 04:46:55;;;;;;;0.82;0.82;;;11.50;99.90;;;;;;5404251;26;20535;-76
2024/04/14 04:49:21;;;;;;;0.57;0.40;;;11.40;99.90;;;;;;5400809;26;20548;-77
2024/04/14 04:51:47;;;;;;;0.50;0.50;;;11.60;1.00;;;;;;5400077;26;20035;-77
2024/04/14 04:54:13;;;;;;;0.20;0.20;;;11.60;99.90;;;;;;5391281;26;20036;-77
2024/04/14 04:56:40;;;;;;;0.98;0.32;;;11.60;99.90;;;;;;5402053;26;20032;-75
2024/04/14 04:59:06;;;;;;;0.98;0.93;;;11.60;99.90;;;;;;5365204;26;20365;-77
2024/04/14 05:01:32;;;;;;;0.80;0.57;;;11.60;99.90;;;;;;5407354;26;20031;-76
2024/04/14 05:03:58;;;;;;;1.00;0.90;;;11.70;99.90;;;;;;5399088;26;20032;-78
2024/04/14 05:06:24;;;;;;;0.60;0.57;;;11.80;99.90;;;;;;5364704;26;20035;-75
2024/04/14 05:08:50;;;;;;;0.60;0.60;;;11.80;99.90;;;;;;5359850;26;20041;-76
2024/04/14 05:11:16;;;;;;;0.73;0.70;;;11.90;99.90;;;;;;5398995;26;20036;-76
2024/04/14 05:13:42;;;;;;;0.57;0.52;;;12.10;99.90;;;;;;5403727;26;20337;-76
2024/04/14 05:16:09;;;;;;;0.57;0.32;;;12.20;99.90;;;;;;5400826;26;20036;-76
2024/04/14 05:18:35;;;;;;;0.40;0.40;;;12.20;99.90;;;;;;5394934;26;20033;-76
2024/04/14 05:21:01;;;;;;;0.82;0.82;;;12.40;99.90;;;;;;5393718;26;20476;-78
2024/04/14 05:23:27;;;;;;;0.75;0.75;;;12.50;99.90;;;;;;5398498;26;20040;-76
2024/04/14 05:25:53;;;;;;;1.40;1.08;;;12.80;99.90;;;;;;5399626;26;20040;-76
2024/04/14 05:28:20;;;;;;;1.77;1.15;;;13.00;99.90;;;;;;5404925;26;20032;-76
2024/04/14 05:30:46;;;;;;;0.43;0.43;;;13.20;99.90;;;;;;5400193;26;20044;-77
2024/04/14 05:33:13;;;;;;;0.50;0.50;;;13.30;99.90;;;;;;5387057;26;20365;-77
2024/04/14 05:35:39;;;;;;;0.60;0.60;;;13.60;99.90;;;;;;5405430;26;20032;-77
2024/04/14 05:38:05;;;;;;;1.25;1.15;;;13.80;84.40;;;;;;5399759;26;20031;-79
2024/04/14 05:40:31;;;;;;;0.75;0.35;;;14.10;30.70;;;;;;5396179;26;20045;-78
2024/04/14 05:42:57;;;;;;;0.88;0.40;;;14.40;1.00;;;;;;5388371;26;20039;-77
2024/04/14 05:45:25;;;;;;;0.52;0.52;;;14.70;1.00;;;;;;5395685;26;20036;-77
2024/04/14 05:47:51;;;;;;;0.20;0.20;;;14.80;1.00;;;;;;5395326;26;20394;-77
2024/04/14 05:50:17;;;;;;;0.30;0.30;;;14.80;99.90;;;;;;5402291;26;20031;-81
2024/04/14 05:52:43;;;;;;;0.40;0.40;;;14.80;99.90;;;;;;5399213;26;20484;-77
2024/04/14 05:55:10;;;;;;;1.95;0.30;;;14.90;99.90;;;;;;5387214;26;20457;-77
2024/04/14 05:57:36;;;;;;;0.40;0.40;;;15.20;99.90;;;;;;5387200;26;20027;-77
2024/04/14 06:00:02;;;;;;;0.40;0.40;;;15.40;99.90;;;;;;5352409;26;20027;-77
2024/04/14 06:02:28;;;;;;;0.85;0.38;;;15.70;99.90;;;;;;5403612;26;20040;-77
2024/04/14 06:04:54;;;;;;;0.65;0.65;;;16.20;99.90;;;;;;5397137;26;20033;-77
2024/04/14 06:07:21;;;;;;;0.60;0.60;;;16.50;99.90;;;;;;5397282;26;20362;-77
2024/04/14 06:09:47;;;;;;;0.40;0.35;;;16.70;73.30;;;;;;5376031;26;20032;-78
2024/04/14 06:12:13;;;;;;;0.43;0.40;;;16.90;32.40;;;;;;5395611;26;20058;-79
2024/04/14 06:14:39;;;;;;;0.88;0.40;;;16.90;12.40;;;;;;5401680;26;20040;-79
2024/04/14 06:17:05;;;;;;;0.95;0.52;;;17.10;1.00;;;;;;5405592;26;20497;-80
2024/04/14 06:19:31;;;;;;;0.50;0.43;;;17.10;1.00;;;;;;5393679;26;20039;-80
2024/04/14 06:21:57;;;;;;;0.32;0.32;;;16.90;1.00;;;;;;5372963;26;20027;-79
2024/04/14 06:24:24;;;;;;;1.33;0.90;;;16.90;1.00;;;;;;5397240;26;20035;-78
2024/04/14 06:26:50;;;;;;;0.50;0.50;;;16.90;3.10;;;;;;5399051;26;20052;-77
2024/04/14 06:29:16;;;;;;;0.30;0.30;;;16.70;1.50;;;;;;5397945;26;20036;-80
2024/04/14 06:31:42;;;;;;;3.22;1.02;;;16.40;44.30;;;;;;5396716;26;20040;-81
2024/04/14 06:34:08;;;;;;;2.53;0.63;;;16.30;99.90;;;;;;5371994;26;20032;-79
2024/04/14 06:36:34;;;;;;;0.35;0.35;;;16.40;93.40;;;;;;5401151;26;20035;-80
2024/04/14 06:39:00;;;;;;;6.65;0.65;;;16.50;79.20;;;;;;5401637;26;20358;-78
2024/04/14 06:41:28;;;;;;;0.80;0.50;;;16.60;68.80;;;;;;5404011;26;20036;-78
2024/04/14 06:43:54;;;;;;;0.32;0.32;;;16.70;57.70;;;;;;5369444;26;20040;-79
2024/04/14 06:46:20;;;;;;;3.40;0.60;;;17.00;30.40;;;;;;5393524;26;20040;-79
2024/04/14 06:48:46;;;;;;;2.50;0.45;;;17.10;23.10;;;;;;5399821;26;20046;-79
2024/04/14 06:51:13;;;;;;;0.40;0.40;;;17.20;1.00;;;;;;5396731;26;20043;-80
2024/04/14 06:53:39;;;;;;;0.20;0.20;;;17.10;1.00;;;;;;5366194;26;20492;-80
2024/04/14 06:56:06;;;;;;;0.93;0.88;;;17.00;20.10;;;;;;5393807;26;20481;-80
2024/04/14 06:58:33;;;;;;;0.57;0.57;;;17.00;1.00;;;;;;5394791;26;20379;-79
2024/04/14 07:00:59;;;;;;;1.30;0.50;;;17.10;1.00;;;;;;5398067;26;20043;-80
2024/04/14 07:03:26;;;;;;;1.25;0.60;;;17.20;1.00;;;;;;5395086;26;20032;-79
2024/04/14 07:05:52;;;;;;;0.70;0.70;;;17.40;1.00;;;;;;5399598;26;20033;-80
2024/04/14 07:08:18;;;;;;;2.22;0.43;;;17.60;1.00;;;;;;5392069;26;20036;-78
2024/04/14 07:10:44;;;;;;;0.20;0.20;;;17.60;1.00;;;;;;5393809;26;20044;-79
2024/04/14 07:13:10;;;;;;;1.85;0.85;;;17.70;1.00;;;;;;5399441;26;20032;-78
2024/04/14 07:15:36;;;;;;;0.38;0.38;;;17.80;1.00;;;;;;5396616;26;20035;-78
2024/04/14 07:18:04;;;;;;;0.85;0.75;;;18.00;1.00;;;;;;5401695;26;20004;-78
2024/04/14 07:20:30;;;;;;;0.85;0.50;;;18.00;1.00;;;;;;5401843;26;20035;-78
2024/04/14 07:22:56;;;;;;;0.73;0.73;;;18.20;1.00;;;;;;5396979;26;20036;-81
2024/04/14 07:25:22;;;;;;;2.05;1.33;;;18.30;1.00;;;;;;5396064;26;20035;-78
2024/04/14 07:27:48;;;;;;;0.20;0.20;;;18.30;1.00;;;;;;5392516;26;20044;-78
2024/04/14 07:30:15;;;;;;;1.42;1.00;;;18.50;1.00;;;;;;5401241;26;20090;-81
2024/04/14 07:32:41;;;;;;;0.22;0.22;;;18.50;1.00;;;;;;5396674;26;20042;-78
2024/04/14 07:35:07;;;;;;;0.65;0.65;;;18.60;1.00;;;;;;5382901;26;20036;-79
2024/04/14 07:37:33;;;;;;;0.28;0.28;;;18.70;1.00;;;;;;5401905;26;20043;-80
2024/04/14 07:39:59;;;;;;;1.40;1.30;;;18.70;1.00;;;;;;5401499;26;20028;-78
2024/04/14 07:42:26;;;;;;;2.00;0.45;;;18.70;1.00;;;;;;5404812;26;20043;-77
2024/04/14 07:44:52;;;;;;;0.75;0.60;;;18.90;1.00;;;;;;5394229;26;20466;-79
2024/04/14 07:47:18;;;;;;;0.40;0.40;;;19.10;1.00;;;;;;5396079;26;20706;-80
2024/04/14 07:49:44;;;;;;;2.33;1.00;;;19.30;99.90;;;;;;5409428;26;20369;-79
2024/04/14 07:52:10;;;;;;;0.38;0.38;;;19.40;99.90;;;;;;5399197;26;20028;-79
2024/04/14 07:54:36;;;;;;;0.47;0.38;;;19.60;99.90;;;;;;5394657;26;20259;-79
2024/04/14 07:57:05;;;;;;;0.30;0.30;;;20.00;99.90;;;;;;5399627;26;20047;-79
2024/04/14 07:59:34;;;;;;;3.67;0.43;;;20.20;99.90;;;;;;5404374;26;20106;-79
2024/04/14 08:02:01;;;;;;;0.43;0.43;;;20.40;99.90;;;;;;5394496;26;20032;-79
2024/04/14 08:04:27;;;;;;;1.00;0.43;;;20.50;99.90;;;;;;5389936;26;20037;-79
2024/04/14 08:06:54;;;;;;;0.30;0.30;;;20.80;99.90;;;;;;5400705;26;20458;-80
2024/04/14 08:09:20;;;;;;;0.30;0.30;;;21.20;99.90;;;;;;5406375;26;20063;-79
2024/04/14 08:11:47;;;;;;;0.10;0.10;;;21.40;99.90;;;;;;5407083;26;20497;-78
2024/04/14 08:14:13;;;;;;;0.80;0.80;;;21.30;99.90;;;;;;5400690;26;20036;-81
2024/04/14 08:16:39;;;;;;;0.20;0.20;;;21.50;99.90;;;;;;5394202;26;20040;-78
2024/04/14 08:19:05;;;;;;;0.22;0.22;;;21.60;99.90;;;;;;5397420;26;20039;-80
2024/04/14 08:21:32;;;;;;;0.60;0.60;;;21.70;99.90;;;;;;5401318;26;20036;-78
2024/04/14 08:23:58;;;;;;;1.30;0.75;;;21.70;99.90;;;;;;5391401;26;20032;-80
2024/04/14 08:26:24;;;;;;;0.38;0.38;;;21.50;99.90;;;;;;5391906;26;20031;-78
2024/04/14 08:28:50;;;;;;;0.38;0.38;;;21.30;99.90;;;;;;5394863;26;20345;-80
2024/04/14 08:31:16;;;;;;;0.30;0.30;;;21.40;99.90;;;;;;5396379;26;20031;-76
2024/04/14 08:33:44;;;;;;;0.20;0.20;;;21.30;99.90;;;;;;5389894;26;20043;-75
2024/04/14 08:36:10;;;;;;;0.20;0.20;;;21.30;99.90;;;;;;5392737;26;20040;-80
2024/04/14 08:38:39;;;;;;;0.50;0.50;;;21.00;99.90;;;;;;5400008;26;20039;-82
2024/04/14 08:41:05;;;;;;;0.20;0.20;;;21.10;99.90;;;;;;5391010;26;20036;-80
2024/04/14 08:43:31;;;;;;;0.30;0.30;;;21.20;99.90;;;;;;5387506;26;20378;-80
2024/04/14 08:45:58;;;;;;;0.40;0.40;;;21.40;99.90;;;;;;5399811;26;20040;-79
2024/04/14 08:48:26;;;;;;;0.25;0.25;;;21.50;99.90;;;;;;5390138;26;20025;-77
2024/04/14 08:50:55;;;;;;;0.40;0.40;;;21.50;99.90;;;;;;5386543;26;20032;-80
2024/04/14 08:53:24;;;;;;;0.77;0.77;;;21.60;99.90;;;;;;5401803;26;20771;-81
2024/04/14 08:55:50;;;;;;;0.22;0.22;;;21.90;99.90;;;;;;5393466;26;20039;-78
2024/04/14 08:58:18;;;;;;;0.35;0.30;;;22.10;99.90;;;;;;5406329;26;20384;-78
2024/04/14 09:00:47;;;;;;;0.20;0.20;;;22.20;99.90;;;;;;5404232;26;20048;-78
2024/04/14 09:03:13;;;;;;;0.20;0.20;;;22.20;99.90;;;;;;5388075;26;20032;-80
2024/04/14 09:05:42;;;;;;;0.32;0.28;;;22.30;99.90;;;;;;5405393;26;20265;-79
2024/04/14 09:08:08;;;;;;;0.17;0.17;;;22.30;99.90;;;;;;5403531;26;20036;-79
2024/04/14 09:10:35;;;;;;;0.40;0.40;;;22.20;99.90;;;;;;5397554;26;20051;-79
2024/04/14 09:13:03;;;;;;;0.20;0.20;;;22.20;99.90;;;;;;5402179;26;20119;-81
2024/04/14 09:15:29;;;;;;;0.30;0.30;;;22.20;99.90;;;;;;5402613;26;20032;-76
2024/04/14 09:17:55;;;;;;;0.20;0.20;;;22.10;99.90;;;;;;5404717;26;20048;-79
2024/04/14 09:20:21;;;;;;;0.30;0.30;;;22.00;99.90;;;;;;5402348;26;20068;-80
2024/04/14 09:22:48;;;;;;;0.40;0.40;;;21.90;99.90;;;;;;5399289;26;20028;-80
2024/04/14 09:25:17;;;;;;;7.05;0.57;;;21.90;99.90;;;;;;5427684;26;20166;-78
2024/04/14 09:27:43;;;;;;;0.25;0.25;;;21.80;99.90;;;;;;5386055;26;20095;-78
2024/04/14 09:30:19;;;;;;;0.20;0.20;;;21.90;99.90;;;;;;5393935;26;20515;-78
2024/04/14 09:32:47;;;;;;;0.30;0.30;;;22.00;99.90;;;;;;5399631;26;20365;-77
2024/04/14 09:35:14;;;;;;;1.08;0.70;;;21.90;99.90;;;;;;5395727;26;20036;-78
2024/04/14 09:37:41;;;;;;;2.13;1.02;;;21.90;99.90;;;;;;5390686;26;20035;-78
2024/04/14 09:40:09;;;;;;;0.40;0.40;;;22.00;99.90;;;;;;5384772;26;20040;-76
2024/04/14 09:42:35;;;;;;;0.13;0.13;;;22.20;99.90;;;;;;5402069;26;20044;-78
2024/04/14 09:45:05;;;;;;;0.20;0.20;;;22.30;99.90;;;;;;5397532;26;20027;-79
2024/04/14 09:47:32;;;;;;;0.40;0.40;;;22.10;99.90;;;;;;5396644;26;20045;-79
2024/04/14 09:49:59;;;;;;;0.40;0.30;;;21.80;99.90;;;;;;5397580;26;20033;-79
2024/04/14 09:52:28;;;;;;;0.22;0.22;;;21.70;99.90;;;;;;5401540;26;20055;-78
2024/04/14 09:54:57;;;;;;;0.63;0.40;;;21.50;99.90;;;;;;5407285;26;20035;-79
2024/04/14 09:57:24;;;;;;;0.25;0.25;;;21.20;99.90;;;;;;5400872;26;20040;-79
2024/04/14 09:59:52;;;;;;;0.10;0.10;;;21.10;99.90;;;;;;5400088;26;20373;-79
2024/04/14 10:02:29;;;;;;;0.22;0.22;;;21.30;99.90;;;;;;5400903;26;20036;-80
2024/04/14 10:04:56;;;;;;;0.22;0.20;;;21.50;99.90;;;;;;5395536;26;20035;-79
2024/04/14 10:07:23;;;;;;;0.50;0.40;;;21.70;99.90;;;;;;5401383;26;20031;-80
2024/04/14 10:09:49;;;;;;;0.20;0.20;;;22.10;99.90;;;;;;5398907;26;20035;-78
2024/04/14 10:12:19;;;;;;;0.20;0.20;;;22.20;99.90;;;;;;5397009;26;20357;-79
2024/04/14 10:14:48;;;;;;;0.50;0.40;;;22.20;99.90;;;;;;5393972;26;20035;-78
2024/04/14 10:17:17;;;;;;;0.20;0.20;;;22.00;99.90;;;;;;5385482;26;20032;-77
2024/04/14 10:20:13;;;;;;;2.47;0.98;;;21.90;99.90;;;;;;5400109;26;20035;-78
2024/04/14 10:22:41;;;;;;;0.47;0.47;;;21.80;99.90;;;;;;5397978;26;20035;-77
2024/04/14 10:25:21;;;;;;;0.60;0.43;;;22.20;99.90;;;;;;5395289;26;20035;-78
2024/04/14 10:27:47;;;;;;;0.50;0.50;;;22.30;99.90;;;;;;5397938;26;20040;-77
2024/04/14 10:30:21;;;;;;;1.80;0.63;;;22.60;99.90;;;;;;5392540;26;20035;-78
2024/04/14 10:33:00;;;;;;;0.30;0.30;;;22.50;99.90;;;;;;5394441;26;20028;-78
2024/04/14 10:35:27;;;;;;;0.93;0.93;;;22.50;99.90;;;;;;5398470;26;20048;-79
2024/04/14 10:37:54;;;;;;;1.20;0.63;;;22.70;99.90;;;;;;5401113;26;20031;-78
2024/04/14 10:40:22;;;;;;;0.30;0.30;;;22.70;99.90;;;;;;5399945;26;20052;-78
2024/04/14 10:42:49;;;;;;;0.30;0.30;;;22.70;99.90;;;;;;5393451;26;20032;-78
2024/04/14 10:45:28;;;;;;;0.63;0.45;;;22.50;99.90;;;;;;5396862;26;20031;-77
2024/04/14 10:47:56;;;;;;;0.50;0.30;;;22.50;99.90;;;;;;5403366;26;20063;-78
2024/04/14 10:50:24;;;;;;;0.65;0.65;;;22.70;99.90;;;;;;5400765;26;20304;-78
2024/04/14 10:52:51;;;;;;;0.65;0.65;;;22.60;99.90;;;;;;5397680;26;20061;-79
2024/04/14 10:55:17;;;;;;;0.20;0.20;;;22.60;99.90;;;;;;5399026;26;20036;-79
2024/04/14 10:57:43;;;;;;;0.25;0.25;;;22.60;99.90;;;;;;5404509;26;20396;-77
2024/04/14 11:00:10;;;;;;;0.15;0.15;;;22.40;99.90;;;;;;5408438;26;20040;-77
2024/04/14 11:02:37;;;;;;;0.38;0.38;;;22.80;99.90;;;;;;5398345;26;20481;-78
2024/04/14 11:05:04;;;;;;;0.20;0.20;;;22.90;99.90;;;;;;5402408;26;20044;-78
2024/04/14 11:07:30;;;;;;;1.65;0.85;;;22.90;99.90;;;;;;5412315;26;20035;-77
2024/04/14 11:09:57;;;;;;;0.65;0.38;;;23.00;98.00;;;;;;5400304;26;20062;-77
2024/04/14 11:12:24;;;;;;;0.20;0.20;;;23.00;98.40;;;;;;5389846;26;20032;-77
2024/04/14 11:14:51;;;;;;;0.20;0.20;;;23.10;99.10;;;;;;5403393;26;20035;-77
2024/04/14 11:17:17;;;;;;;0.20;0.20;;;23.30;95.30;;;;;;5397301;26;20516;-77
2024/04/14 11:19:45;;;;;;;0.20;0.20;;;23.20;96.20;;;;;;5397021;26;20036;-76
2024/04/14 11:22:18;;;;;;;0.75;0.73;;;23.10;94.20;;;;;;5408480;26;20040;-76
2024/04/14 11:24:49;;;;;;;0.20;0.20;;;22.90;94.90;;;;;;5399155;26;20060;-76
2024/04/14 11:27:16;;;;;;;0.20;0.20;;;23.10;94.80;;;;;;5396196;26;20040;-79
2024/04/14 11:29:42;;;;;;;2.08;0.85;;;23.20;92.00;;;;;;5387456;26;20055;-78
2024/04/14 11:32:28;;;;;;;0.60;0.60;;;23.10;92.10;;;;;;5391102;26;20048;-77
2024/04/14 11:34:58;;;;;;;0.30;0.30;;;23.10;93.10;;;;;;5401936;26;20043;-78
2024/04/14 11:37:26;;;;;;;0.93;0.52;;;23.20;92.30;;;;;;5399728;26;20476;-78
2024/04/14 11:39:53;;;;;;;0.28;0.28;;;23.40;93.10;;;;;;5396057;26;20457;-78
2024/04/14 11:42:19;;;;;;;0.15;0.15;;;23.30;88.40;;;;;;5393123;26;20041;-76
2024/04/14 11:44:45;;;;;;;0.30;0.30;;;23.20;83.80;;;;;;5386954;26;20063;-78
2024/04/14 11:47:12;;;;;;;0.10;0.10;;;23.40;83.80;;;;;;5405101;26;20035;-79
2024/04/14 11:49:38;;;;;;;0.20;0.20;;;23.60;76.50;;;;;;5407331;26;20107;-78
2024/04/14 11:52:04;;;;;;;1.10;1.00;;;23.50;79.40;;;;;;5403280;26;20041;-77
2024/04/14 11:54:30;;;;;;;0.10;0.10;;;23.60;79.90;;;;;;5399423;26;20032;-77
2024/04/14 11:56:57;;;;;;;0.28;0.28;;;23.70;70.80;;;;;;5391309;26;20032;-78
2024/04/14 11:59:23;;;;;;;0.38;0.20;;;23.80;70.10;;;;;;5397815;26;20039;-79
2024/04/14 12:01:49;;;;;;;0.30;0.30;;;23.80;72.60;;;;;;5407292;26;20396;-78
2024/04/14 12:04:15;;;;;;;0.30;0.30;;;23.90;69.10;;;;;;5403733;26;20031;-79
2024/04/14 12:06:41;;;;;;;0.22;0.22;;;23.90;66.70;;;;;;5388345;26;20020;-80
2024/04/14 12:09:07;;;;;;;0.35;0.35;;;23.70;69.00;;;;;;5392901;26;20892;-79
2024/04/14 12:11:34;;;;;;;0.45;0.40;;;23.90;62.30;;;;;;5390142;26;20045;-79
2024/04/14 12:14:01;;;;;;;0.20;0.20;;;24.00;61.80;;;;;;5397825;26;20032;-78
2024/04/14 12:16:28;;;;;;;0.20;0.20;;;24.00;61.00;;;;;;5396597;26;20036;-83
2024/04/14 12:18:55;;;;;;;0.20;0.20;;;24.00;60.00;;;;;;5393065;26;20032;-80
2024/04/14 12:21:23;;;;;;;0.20;0.20;;;23.80;61.20;;;;;;5387826;26;20040;-80
2024/04/14 12:23:49;;;;;;;0.20;0.20;;;23.90;63.60;;;;;;5403516;26;20692;-80
2024/04/14 12:26:16;;;;;;;1.08;0.82;;;23.90;59.20;;;;;;5402517;26;20497;-79
2024/04/14 12:28:42;;;;;;;0.20;0.20;;;24.00;54.30;;;;;;5397141;26;20146;-77
2024/04/14 12:31:08;;;;;;;0.20;0.20;;;24.10;55.60;;;;;;5401519;26;20032;-78
2024/04/14 12:33:34;;;;;;;0.10;0.10;;;24.10;49.20;;;;;;5400155;26;20031;-80
2024/04/14 12:36:01;;;;;;;0.52;0.52;;;24.10;49.70;;;;;;5391112;26;20467;-79
2024/04/14 12:38:28;;;;;;;0.20;0.20;;;24.30;49.40;;;;;;5403496;26;20028;-79
2024/04/14 12:40:54;;;;;;;0.30;0.30;;;24.20;45.80;;;;;;5400358;26;20036;-80
2024/04/14 12:43:20;;;;;;;0.30;0.30;;;24.30;47.10;;;;;;5400658;26;20040;-79
2024/04/14 12:45:48;;;;;;;0.32;0.32;;;24.20;49.00;;;;;;5399985;26;20044;-79